createdAt,value
2023-03-27T00:00:16.612Z,2.47
2023-03-27T00:02:46.935Z,2.40
2023-03-27T00:05:20.439Z,2.73
2023-03-27T00:07:49.611Z,2.90
2023-03-27T00:10:18.572Z,2.33
2023-03-27T00:12:47.174Z,2.50
2023-03-27T00:15:17.491Z,2.40
2023-03-27T00:17:49.131Z,2.40
2023-03-27T00:20:22.949Z,2.60
2023-03-27T00:22:55.465Z,3.40
2023-03-27T00:25:25.259Z,3.10
2023-03-27T00:27:54.047Z,2.90
2023-03-27T00:30:22.333Z,2.70
2023-03-27T00:32:51.300Z,3.20
2023-03-27T00:35:21.504Z,3.30
2023-03-27T00:37:50.072Z,3.40
2023-03-27T00:40:18.739Z,3.67
2023-03-27T00:42:49.879Z,3.73
2023-03-27T00:45:19.872Z,3.57
2023-03-27T00:47:54.270Z,2.80
2023-03-27T00:50:29.552Z,4.10
2023-03-27T00:53:02.195Z,3.00
2023-03-27T00:55:35.208Z,3.17
2023-03-27T00:58:08.110Z,3.77
2023-03-27T01:00:37.305Z,2.90
2023-03-27T01:03:09.555Z,4.93
2023-03-27T01:05:39.633Z,2.93
2023-03-27T01:08:08.881Z,3.70
2023-03-27T01:10:51.433Z,2.93
2023-03-27T01:13:46.007Z,2.80
2023-03-27T01:16:23.005Z,3.00
2023-03-27T01:19:13.030Z,2.47
2023-03-27T01:22:23.895Z,2.53
2023-03-27T01:25:42.027Z,3.07
2023-03-27T01:28:46.092Z,3.57
2023-03-27T01:31:40.944Z,2.37
2023-03-27T01:34:44.998Z,1.90
2023-03-27T01:37:52.734Z,2.97
2023-03-27T01:40:27.256Z,1.90
2023-03-27T01:43:02.586Z,1.90
2023-03-27T01:45:36.341Z,2.03
2023-03-27T01:48:11.167Z,2.00
2023-03-27T01:50:46.341Z,2.07
2023-03-27T01:53:21.462Z,1.40
2023-03-27T01:55:54.735Z,2.50
2023-03-27T01:58:28.473Z,1.50
2023-03-27T02:01:01.429Z,1.50
2023-03-27T02:03:34.865Z,1.60
2023-03-27T02:06:08.733Z,1.93
2023-03-27T02:08:46.625Z,2.93
2023-03-27T02:11:24.834Z,1.77
2023-03-27T02:13:58.862Z,1.43
2023-03-27T02:16:33.974Z,2.10
2023-03-27T02:19:08.317Z,1.30
2023-03-27T02:21:36.731Z,1.50
2023-03-27T02:24:06.489Z,2.00
2023-03-27T02:26:37.059Z,1.27
2023-03-27T02:29:23.923Z,2.20
2023-03-27T02:32:05.940Z,1.50
2023-03-27T02:35:04.405Z,1.20
2023-03-27T02:37:45.073Z,1.60
2023-03-27T02:40:29.882Z,2.03
2023-03-27T02:43:24.533Z,3.03
2023-03-27T02:45:58.872Z,1.47
2023-03-27T02:48:34.231Z,1.93
2023-03-27T02:51:08.423Z,2.20
2023-03-27T02:53:43.624Z,1.87
2023-03-27T02:56:14.289Z,2.27
2023-03-27T02:58:50.118Z,1.53
2023-03-27T03:01:37.879Z,2.50
2023-03-27T03:04:20.368Z,2.07
2023-03-27T03:07:09.207Z,1.37
2023-03-27T03:09:40.473Z,1.87
2023-03-27T03:12:10.690Z,1.90
2023-03-27T03:14:45.489Z,2.50
2023-03-27T03:17:15.774Z,2.07
2023-03-27T03:19:44.135Z,1.60
2023-03-27T03:22:13.207Z,1.57
2023-03-27T03:24:43.871Z,2.17
2023-03-27T03:27:15.886Z,1.90
2023-03-27T03:29:56.849Z,1.80
2023-03-27T03:32:30.475Z,2.17
2023-03-27T03:35:01.812Z,2.40
2023-03-27T03:37:38.902Z,2.50
2023-03-27T03:40:12.694Z,1.10
2023-03-27T03:42:48.924Z,2.03
2023-03-27T03:45:20.795Z,2.13
2023-03-27T03:47:49.301Z,1.33
2023-03-27T03:50:18.273Z,1.93
2023-03-27T03:52:47.287Z,1.90
2023-03-27T03:55:16.264Z,2.53
2023-03-27T03:57:48.433Z,2.60
2023-03-27T04:00:25.649Z,2.10
2023-03-27T04:02:56.885Z,2.23
2023-03-27T04:05:26.108Z,1.83
2023-03-27T04:07:59.427Z,1.87
2023-03-27T04:10:46.552Z,1.90
2023-03-27T04:13:23.947Z,1.60
2023-03-27T04:16:02.353Z,1.53
2023-03-27T04:18:41.506Z,2.60
2023-03-27T04:21:17.746Z,1.20
2023-03-27T04:23:48.688Z,2.40
2023-03-27T04:26:26.626Z,1.40
2023-03-27T04:29:24.343Z,1.20
2023-03-27T04:32:03.545Z,1.63
2023-03-27T04:34:41.321Z,1.40
2023-03-27T04:37:34.105Z,2.20
2023-03-27T04:40:14.959Z,2.20
2023-03-27T04:42:44.964Z,2.10
2023-03-27T04:45:17.756Z,2.10
2023-03-27T04:47:50.335Z,1.40
2023-03-27T04:50:19.231Z,1.90
2023-03-27T04:52:50.287Z,1.77
2023-03-27T04:55:20.451Z,1.67
2023-03-27T04:57:51.397Z,2.13
2023-03-27T05:00:23.770Z,1.40
2023-03-27T05:03:13.960Z,1.90
2023-03-27T05:05:58.181Z,2.30
2023-03-27T05:08:27.399Z,1.60
2023-03-27T05:10:57.492Z,1.87
2023-03-27T05:13:26.258Z,1.80
2023-03-27T05:15:54.695Z,1.87
2023-03-27T05:18:27.653Z,2.00
2023-03-27T05:20:57.523Z,1.83
2023-03-27T05:23:26.276Z,2.37
2023-03-27T05:26:00.602Z,2.33
2023-03-27T05:28:44.756Z,2.10
2023-03-27T05:31:13.937Z,1.77
2023-03-27T05:34:03.590Z,1.47
2023-03-27T05:36:35.526Z,1.77
2023-03-27T05:39:05.706Z,2.07
2023-03-27T05:41:43.279Z,1.73
2023-03-27T05:44:11.726Z,2.43
2023-03-27T05:46:43.854Z,1.60
2023-03-27T05:49:34.403Z,1.70
2023-03-27T05:52:10.871Z,2.70
2023-03-27T05:54:39.429Z,1.60
2023-03-27T05:57:11.824Z,1.97
2023-03-27T05:59:41.805Z,1.57
2023-03-27T06:02:28.291Z,1.80
2023-03-27T06:05:01.361Z,1.60
2023-03-27T06:07:33.433Z,1.60
2023-03-27T06:10:13.276Z,1.83
2023-03-27T06:12:48.726Z,2.60
2023-03-27T06:15:25.811Z,1.73
2023-03-27T06:18:14.443Z,2.53
2023-03-27T06:20:44.249Z,3.30
2023-03-27T06:23:13.504Z,2.00
2023-03-27T06:25:44.186Z,2.37
2023-03-27T06:28:14.547Z,1.40
2023-03-27T06:30:46.373Z,2.10
2023-03-27T06:33:33.059Z,2.33
2023-03-27T06:36:07.409Z,1.60
2023-03-27T06:38:37.440Z,1.70
2023-03-27T06:41:07.375Z,2.33
2023-03-27T06:44:01.632Z,2.47
2023-03-27T06:46:45.393Z,1.50
2023-03-27T06:49:25.168Z,1.97
2023-03-27T06:51:54.933Z,1.40
2023-03-27T06:54:24.296Z,1.50
2023-03-27T06:56:55.562Z,2.53
2023-03-27T06:59:24.577Z,1.70
2023-03-27T07:01:58.736Z,3.10
2023-03-27T07:04:35.916Z,3.00
2023-03-27T07:07:12.597Z,2.30
2023-03-27T07:09:43.884Z,2.03
2023-03-27T07:12:15.404Z,2.20
2023-03-27T07:14:46.446Z,2.03
2023-03-27T07:17:15.152Z,2.37
2023-03-27T07:19:54.645Z,2.10
2023-03-27T07:22:28.192Z,2.50
2023-03-27T07:24:58.444Z,2.43
2023-03-27T07:27:27.897Z,2.27
2023-03-27T07:30:01.502Z,1.90
2023-03-27T07:32:37.248Z,1.90
2023-03-27T07:35:08.614Z,2.90
2023-03-27T07:37:51.770Z,2.67
2023-03-27T07:40:58.148Z,1.53
2023-03-27T07:43:29.409Z,2.97
2023-03-27T07:45:58.925Z,1.97
2023-03-27T07:48:30.094Z,1.87
2023-03-27T07:51:10.816Z,1.73
2023-03-27T07:53:44.391Z,1.37
2023-03-27T07:56:24.573Z,1.90
2023-03-27T07:59:12.098Z,2.20
2023-03-27T08:01:42.361Z,1.97
2023-03-27T08:04:11.178Z,1.57
2023-03-27T08:06:42.682Z,1.90
2023-03-27T08:09:17.308Z,2.50
2023-03-27T08:11:47.354Z,1.80
2023-03-27T08:14:17.022Z,1.83
2023-03-27T08:16:45.787Z,1.70
2023-03-27T08:19:15.024Z,2.20
2023-03-27T08:21:48.614Z,1.50
2023-03-27T08:24:18.803Z,2.03
2023-03-27T08:27:06.272Z,2.00
2023-03-27T08:29:40.158Z,1.50
2023-03-27T08:32:10.626Z,1.50
2023-03-27T08:34:42.482Z,1.00
2023-03-27T08:37:10.948Z,1.43
2023-03-27T08:39:51.709Z,1.83
2023-03-27T08:42:23.064Z,2.57
2023-03-27T08:44:55.921Z,2.93
2023-03-27T08:47:44.083Z,3.00
2023-03-27T08:50:34.103Z,2.13
2023-03-27T08:53:24.069Z,1.40
2023-03-27T08:55:54.129Z,1.20
2023-03-27T08:58:28.707Z,1.60
2023-03-27T09:01:22.417Z,1.63
2023-03-27T09:03:57.560Z,1.90
2023-03-27T09:06:30.152Z,1.70
2023-03-27T09:09:12.301Z,1.80
2023-03-27T09:11:56.567Z,1.87
2023-03-27T09:14:37.407Z,1.20
2023-03-27T09:17:15.845Z,1.17
2023-03-27T09:19:51.827Z,1.47
2023-03-27T09:22:27.546Z,1.40
2023-03-27T09:25:25.423Z,1.47
2023-03-27T09:28:03.521Z,1.50
2023-03-27T09:30:40.324Z,1.20
2023-03-27T09:33:16.642Z,1.13
2023-03-27T09:35:48.636Z,2.23
2023-03-27T09:38:30.397Z,1.80
2023-03-27T09:41:03.120Z,1.50
2023-03-27T09:43:42.801Z,1.63
2023-03-27T09:46:18.169Z,1.30
2023-03-27T09:48:59.310Z,2.00
2023-03-27T09:51:42.960Z,1.13
2023-03-27T09:54:32.627Z,1.63
2023-03-27T09:57:07.338Z,1.80
2023-03-27T09:59:40.007Z,1.57
2023-03-27T10:02:22.215Z,1.90
2023-03-27T10:05:01.473Z,1.67
2023-03-27T10:07:35.473Z,1.60
2023-03-27T10:10:32.318Z,1.53
2023-03-27T10:13:14.169Z,1.60
2023-03-27T10:15:51.292Z,1.43
2023-03-27T10:18:29.875Z,1.03
2023-03-27T10:21:16.277Z,0.60
2023-03-27T10:23:49.409Z,1.70
2023-03-27T10:26:29.654Z,0.90
2023-03-27T10:29:05.174Z,1.00
2023-03-27T10:31:53.078Z,1.70
2023-03-27T10:34:57.365Z,0.70
2023-03-27T10:37:50.291Z,1.17
2023-03-27T10:40:44.480Z,1.10
2023-03-27T10:43:28.414Z,0.90
2023-03-27T10:46:01.072Z,1.10
2023-03-27T10:48:49.410Z,1.23
2023-03-27T10:51:45.011Z,1.17
2023-03-27T10:54:35.625Z,1.10
2023-03-27T10:57:12.552Z,1.20
2023-03-27T10:59:48.836Z,0.90
2023-03-27T11:02:32.979Z,1.00
2023-03-27T11:05:06.039Z,0.80
2023-03-27T11:07:42.104Z,1.10
2023-03-27T11:10:18.377Z,0.97
2023-03-27T11:12:55.282Z,1.00
2023-03-27T11:15:31.618Z,1.17
2023-03-27T11:18:05.675Z,1.30
2023-03-27T11:20:47.337Z,1.30
2023-03-27T11:23:32.166Z,0.93
2023-03-27T11:26:37.956Z,1.03
2023-03-27T11:29:10.425Z,0.97
2023-03-27T11:31:48.348Z,0.73
2023-03-27T11:34:37.049Z,1.33
2023-03-27T11:37:39.726Z,1.30
2023-03-27T11:40:20.321Z,0.90
2023-03-27T11:42:52.397Z,1.27
2023-03-27T11:45:26.035Z,1.17
2023-03-27T11:48:36.161Z,1.17
2023-03-27T11:51:14.011Z,1.00
2023-03-27T11:54:09.755Z,1.10
2023-03-27T11:56:54.715Z,1.03
2023-03-27T11:59:55.701Z,1.23
2023-03-27T12:03:08.869Z,0.80
2023-03-27T12:05:51.021Z,1.10
2023-03-27T12:08:28.408Z,0.93
2023-03-27T12:11:04.929Z,0.83
2023-03-27T12:14:17.634Z,1.00
2023-03-27T12:17:26.588Z,0.70
2023-03-27T12:20:52.889Z,0.80
2023-03-27T12:24:05.930Z,0.63
2023-03-27T12:27:12.641Z,0.80
2023-03-27T12:30:02.684Z,1.20
2023-03-27T12:33:22.475Z,0.80
2023-03-27T12:35:54.810Z,1.10
2023-03-27T12:38:31.219Z,1.47
2023-03-27T12:41:14.387Z,1.00
2023-03-27T12:44:00.872Z,1.90
2023-03-27T12:46:39.926Z,1.13
2023-03-27T12:49:48.135Z,1.10
2023-03-27T12:52:25.494Z,1.33
2023-03-27T12:55:32.983Z,1.27
2023-03-27T12:58:04.147Z,1.00
2023-03-27T13:01:03.694Z,1.20
2023-03-27T13:04:10.207Z,2.30
2023-03-27T13:06:50.909Z,1.30
2023-03-27T13:09:43.266Z,1.37
2023-03-27T13:12:34.401Z,1.40
2023-03-27T13:15:41.040Z,1.23
2023-03-27T13:18:48.293Z,1.60
2023-03-27T13:21:28.235Z,1.40
2023-03-27T13:24:18.208Z,1.10
2023-03-27T13:27:12.261Z,1.60
2023-03-27T13:29:41.618Z,1.13
2023-03-27T13:32:37.980Z,1.37
2023-03-27T13:35:41.417Z,1.50
2023-03-27T13:38:13.571Z,1.40
2023-03-27T13:41:51.869Z,1.63
2023-03-27T13:44:54.405Z,1.07
2023-03-27T13:48:15.203Z,0.80
2023-03-27T13:51:33.985Z,1.50
2023-03-27T13:54:39.396Z,1.00
2023-03-27T13:57:48.369Z,1.57
2023-03-27T14:00:55.613Z,1.60
2023-03-27T14:04:09.924Z,1.10
2023-03-27T14:07:19.388Z,1.77
2023-03-27T14:10:23.244Z,1.53
2023-03-27T14:13:22.212Z,1.50
2023-03-27T14:16:23.243Z,2.60
2023-03-27T14:19:56.702Z,2.17
2023-03-27T14:22:38.066Z,1.50
2023-03-27T14:25:14.097Z,1.80
2023-03-27T14:27:57.341Z,0.93
2023-03-27T14:30:30.793Z,1.40
2023-03-27T14:33:28.640Z,1.03
2023-03-27T14:36:03.949Z,1.20
2023-03-27T14:38:36.134Z,1.20
2023-03-27T14:41:07.904Z,1.20
2023-03-27T14:43:52.293Z,1.23
2023-03-27T14:46:25.692Z,1.40
2023-03-27T14:48:59.264Z,1.37
2023-03-27T14:51:37.214Z,1.40
2023-03-27T14:54:14.802Z,1.80
2023-03-27T14:56:52.404Z,1.63
2023-03-27T14:59:34.825Z,1.00
2023-03-27T15:02:16.016Z,1.80
2023-03-27T15:04:44.900Z,1.13
2023-03-27T15:07:19.909Z,0.90
2023-03-27T15:10:24.492Z,1.63
2023-03-27T15:13:16.610Z,1.30
2023-03-27T15:15:50.788Z,1.50
2023-03-27T15:18:28.294Z,1.43
2023-03-27T15:21:02.382Z,1.50
2023-03-27T15:23:37.928Z,1.53
2023-03-27T15:26:12.049Z,1.60
2023-03-27T15:28:44.094Z,1.87
2023-03-27T15:31:12.917Z,2.37
2023-03-27T15:33:52.558Z,1.70
2023-03-27T15:36:27.803Z,1.37
2023-03-27T15:39:00.611Z,2.70
2023-03-27T15:41:44.061Z,2.80
2023-03-27T15:44:18.704Z,4.10
2023-03-27T15:46:55.810Z,2.00
2023-03-27T15:49:32.643Z,2.00
2023-03-27T15:52:22.685Z,2.30
2023-03-27T15:54:57.983Z,2.40
2023-03-27T15:57:29.673Z,2.03
2023-03-27T16:00:10.196Z,2.53
2023-03-27T16:02:42.237Z,1.70
2023-03-27T16:05:18.313Z,1.53
2023-03-27T16:07:49.533Z,2.03
2023-03-27T16:10:32.663Z,1.57
2023-03-27T16:13:04.111Z,1.00
2023-03-27T16:15:37.822Z,1.10
2023-03-27T16:18:19.111Z,1.00
2023-03-27T16:20:47.956Z,0.80
2023-03-27T16:23:16.338Z,1.00
2023-03-27T16:25:46.206Z,0.60
2023-03-27T16:28:17.665Z,1.20
2023-03-27T16:30:46.133Z,1.80
2023-03-27T16:33:16.816Z,1.10
2023-03-27T16:35:46.251Z,1.00
2023-03-27T16:38:15.209Z,0.87
2023-03-27T16:40:45.548Z,1.30
2023-03-27T16:43:14.990Z,1.00
2023-03-27T16:45:44.805Z,1.40
2023-03-27T16:48:14.567Z,1.47
2023-03-27T16:50:43.064Z,0.67
2023-03-27T16:53:11.682Z,1.23
2023-03-27T16:55:40.078Z,0.70
2023-03-27T16:58:09.954Z,0.70
2023-03-27T17:00:38.459Z,1.00
2023-03-27T17:03:07.027Z,1.30
2023-03-27T17:05:35.536Z,0.70
2023-03-27T17:08:07.135Z,0.77
2023-03-27T17:10:35.963Z,0.93
2023-03-27T17:13:04.404Z,1.00
2023-03-27T17:15:37.704Z,1.20
2023-03-27T17:18:06.883Z,0.97
2023-03-27T17:20:35.877Z,1.73
2023-03-27T17:23:04.304Z,1.10
2023-03-27T17:25:32.744Z,0.70
2023-03-27T17:28:01.279Z,1.10
2023-03-27T17:30:38.518Z,0.90
2023-03-27T17:33:09.603Z,1.00
2023-03-27T17:35:40.408Z,1.20
2023-03-27T17:38:10.288Z,3.03
2023-03-27T17:40:41.483Z,1.00
2023-03-27T17:43:10.563Z,1.77
2023-03-27T17:45:42.669Z,1.27
2023-03-27T17:48:12.641Z,1.30
2023-03-27T17:50:41.040Z,1.07
2023-03-27T17:53:09.437Z,1.77
2023-03-27T17:55:39.076Z,1.43
2023-03-27T17:58:09.951Z,1.70
2023-03-27T18:00:41.378Z,1.10
2023-03-27T18:03:11.351Z,1.00
2023-03-27T18:05:41.438Z,1.00
2023-03-27T18:08:12.303Z,1.30
2023-03-27T18:10:45.426Z,1.30
2023-03-27T18:13:14.977Z,1.40
2023-03-27T18:15:43.773Z,1.53
2023-03-27T18:18:13.827Z,1.60
2023-03-27T18:20:51.848Z,1.40
2023-03-27T18:23:20.561Z,2.20
2023-03-27T18:25:49.425Z,1.60
2023-03-27T18:28:17.825Z,2.53
2023-03-27T18:30:46.532Z,1.20
2023-03-27T18:33:16.261Z,2.57
2023-03-27T18:35:44.703Z,1.33
2023-03-27T18:38:14.310Z,1.27
2023-03-27T18:40:42.769Z,2.10
2023-03-27T18:43:12.607Z,1.67
2023-03-27T18:45:42.160Z,1.40
2023-03-27T18:48:10.857Z,1.80
2023-03-27T18:50:42.361Z,1.80
2023-03-27T18:53:10.851Z,1.60
2023-03-27T18:55:39.434Z,2.10
2023-03-27T18:58:07.792Z,1.50
2023-03-27T19:00:36.432Z,1.70
2023-03-27T19:03:05.025Z,2.57
2023-03-27T19:05:33.493Z,1.90
2023-03-27T19:08:03.902Z,2.07
2023-03-27T19:10:35.553Z,2.53
2023-03-27T19:13:22.562Z,2.03
2023-03-27T19:16:15.007Z,2.13
2023-03-27T19:18:49.505Z,2.00
2023-03-27T19:21:38.633Z,2.10
2023-03-27T19:24:12.323Z,2.20
2023-03-27T19:26:44.734Z,2.30
2023-03-27T19:29:14.164Z,2.67
2023-03-27T19:31:42.954Z,2.70
2023-03-27T19:34:11.414Z,2.80
2023-03-27T19:36:39.882Z,5.07
2023-03-27T19:39:09.162Z,2.80
2023-03-27T19:41:38.938Z,3.07
2023-03-27T19:44:07.488Z,2.83
2023-03-27T19:46:35.822Z,3.13
2023-03-27T19:49:04.535Z,5.53
2023-03-27T19:51:48.787Z,3.07
2023-03-27T19:54:17.813Z,2.77
2023-03-27T19:56:47.528Z,3.00
2023-03-27T19:59:28.244Z,2.77
2023-03-27T20:01:59.140Z,2.87
2023-03-27T20:04:27.669Z,2.60
2023-03-27T20:07:01.978Z,3.23
2023-03-27T20:09:30.843Z,3.20
2023-03-27T20:12:00.502Z,3.07
2023-03-27T20:14:30.932Z,3.17
2023-03-27T20:16:59.303Z,3.07
2023-03-27T20:19:30.561Z,3.10
2023-03-27T20:22:01.691Z,2.73
2023-03-27T20:24:30.053Z,2.70
2023-03-27T20:27:03.661Z,3.07
2023-03-27T20:29:32.156Z,2.60
2023-03-27T20:32:00.814Z,2.73
2023-03-27T20:34:29.384Z,4.23
2023-03-27T20:36:59.078Z,2.47
2023-03-27T20:39:44.751Z,3.07
2023-03-27T20:42:16.144Z,4.63
2023-03-27T20:44:45.377Z,3.43
2023-03-27T20:47:15.083Z,2.87
2023-03-27T20:49:46.857Z,3.20
2023-03-27T20:52:19.021Z,3.60
2023-03-27T20:54:48.138Z,3.50
2023-03-27T20:57:21.733Z,4.17
2023-03-27T20:59:50.286Z,3.63
2023-03-27T21:02:20.448Z,4.10
2023-03-27T21:04:49.422Z,3.53
2023-03-27T21:07:17.871Z,2.83
2023-03-27T21:09:47.811Z,3.37
2023-03-27T21:12:16.165Z,2.80
2023-03-27T21:14:46.358Z,3.13
2023-03-27T21:17:14.753Z,3.70
2023-03-27T21:19:43.227Z,3.20
2023-03-27T21:22:11.635Z,3.00
2023-03-27T21:24:41.393Z,3.60
2023-03-27T21:27:09.770Z,3.33
2023-03-27T21:29:38.681Z,2.40
2023-03-27T21:32:09.302Z,2.90
2023-03-27T21:34:37.656Z,3.03
2023-03-27T21:37:06.029Z,3.23
2023-03-27T21:39:34.387Z,3.27
2023-03-27T21:42:02.818Z,3.20
2023-03-27T21:44:31.261Z,3.10
2023-03-27T21:46:59.600Z,3.07
2023-03-27T21:49:29.536Z,2.60
2023-03-27T21:51:57.930Z,2.70
2023-03-27T21:54:26.373Z,4.73
2023-03-27T21:56:54.933Z,3.23
2023-03-27T21:59:23.311Z,3.63
2023-03-27T22:01:51.780Z,3.40
2023-03-27T22:04:21.756Z,2.53
2023-03-27T22:06:52.077Z,3.10
2023-03-27T22:09:20.469Z,2.90
2023-03-27T22:11:48.862Z,2.80
2023-03-27T22:14:17.407Z,3.23
2023-03-27T22:16:46.015Z,3.30
2023-03-27T22:19:14.298Z,4.40
2023-03-27T22:21:42.838Z,3.30
2023-03-27T22:24:12.603Z,3.00
2023-03-27T22:26:41.843Z,3.00
2023-03-27T22:29:10.487Z,3.30
2023-03-27T22:31:39.628Z,2.43
2023-03-27T22:34:08.052Z,2.60
2023-03-27T22:36:36.773Z,3.23
2023-03-27T22:39:05.562Z,2.83
2023-03-27T22:41:35.325Z,3.17
2023-03-27T22:44:03.977Z,3.37
2023-03-27T22:46:32.421Z,4.00
2023-03-27T22:49:00.983Z,3.50
2023-03-27T22:51:31.070Z,3.67
2023-03-27T22:53:59.618Z,4.80
2023-03-27T22:56:27.996Z,3.20
2023-03-27T22:58:57.919Z,3.60
2023-03-27T23:01:26.559Z,3.60
2023-03-27T23:03:55.187Z,3.20
2023-03-27T23:06:24.652Z,2.90
2023-03-27T23:08:53.198Z,3.00
2023-03-27T23:11:21.921Z,3.30
2023-03-27T23:13:50.653Z,3.67
2023-03-27T23:16:20.626Z,3.10
2023-03-27T23:18:49.014Z,3.30
2023-03-27T23:21:18.059Z,3.13
2023-03-27T23:23:47.248Z,2.90
2023-03-27T23:26:15.983Z,3.00
2023-03-27T23:28:44.751Z,3.13
2023-03-27T23:31:15.188Z,2.40
2023-03-27T23:33:47.093Z,2.60
2023-03-27T23:36:17.980Z,2.60
2023-03-27T23:38:46.531Z,3.20
2023-03-27T23:41:16.667Z,3.30
2023-03-27T23:43:45.411Z,2.60
2023-03-27T23:46:14.258Z,4.07
2023-03-27T23:48:45.583Z,3.50
2023-03-27T23:51:16.566Z,3.70
2023-03-27T23:53:45.485Z,3.80
2023-03-27T23:56:14.064Z,3.27
2023-03-27T23:58:42.542Z,3.20
